createdAt,value
2022-09-06T00:03:08.514Z,16.09
2022-09-06T00:08:10.433Z,16.07
2022-09-06T00:13:13.249Z,16.07
2022-09-06T00:18:14.805Z,16.09
2022-09-06T00:23:16.396Z,16.20
2022-09-06T00:28:19.713Z,16.14
2022-09-06T00:33:21.306Z,16.07
2022-09-06T00:38:22.898Z,16.17
2022-09-06T00:43:25.256Z,16.15
2022-09-06T00:48:27.077Z,16.13
2022-09-06T00:53:30.575Z,16.07
2022-09-06T00:58:32.186Z,16.06
2022-09-06T01:03:35.202Z,15.97
2022-09-06T01:09:10.968Z,15.92
2022-09-06T01:14:19.816Z,15.87
2022-09-06T01:19:47.386Z,15.82
2022-09-06T01:25:10.261Z,15.78
2022-09-06T01:30:14.492Z,15.82
2022-09-06T01:35:40.905Z,15.76
2022-09-06T01:40:42.489Z,15.76
2022-09-06T01:46:12.858Z,15.80
2022-09-06T01:51:33.775Z,15.79
2022-09-06T01:56:41.415Z,15.79
2022-09-06T02:02:05.711Z,15.81
2022-09-06T02:07:20.773Z,15.88
2022-09-06T02:12:25.266Z,15.89
2022-09-06T02:17:31.986Z,15.89
2022-09-06T02:22:40.330Z,15.94
2022-09-06T02:27:42.051Z,16.10
2022-09-06T02:32:50.653Z,16.07
2022-09-06T02:37:52.518Z,16.03
2022-09-06T02:42:54.179Z,16.24
2022-09-06T02:47:55.770Z,16.13
2022-09-06T02:53:09.908Z,15.98
2022-09-06T02:58:12.187Z,15.86
2022-09-06T03:03:13.944Z,15.84
2022-09-06T03:08:17.146Z,15.79
2022-09-06T03:13:19.599Z,15.75
2022-09-06T03:18:21.197Z,15.66
2022-09-06T03:23:25.560Z,15.59
2022-09-06T03:28:27.846Z,15.57
2022-09-06T03:33:29.537Z,15.61
2022-09-06T03:38:31.201Z,15.64
2022-09-06T03:43:32.953Z,15.63
2022-09-06T03:48:34.538Z,15.57
2022-09-06T03:53:36.140Z,15.54
2022-09-06T03:58:37.829Z,15.73
2022-09-06T04:03:40.246Z,15.90
2022-09-06T04:08:42.051Z,15.85
2022-09-06T04:13:43.634Z,15.75
2022-09-06T04:18:45.257Z,15.73
2022-09-06T04:23:46.794Z,15.72
2022-09-06T04:28:48.423Z,15.76
2022-09-06T04:33:50.068Z,15.74
2022-09-06T04:38:51.707Z,15.71
2022-09-06T04:43:53.354Z,15.76
2022-09-06T04:48:55.436Z,15.85
2022-09-06T04:53:57.076Z,15.89
2022-09-06T04:58:58.681Z,15.89
2022-09-06T05:04:00.225Z,15.96
2022-09-06T05:09:02.026Z,16.02
2022-09-06T05:14:06.400Z,16.05
2022-09-06T05:19:08.995Z,16.17
2022-09-06T05:24:11.315Z,16.24
2022-09-06T05:29:12.975Z,16.43
2022-09-06T05:34:15.098Z,16.67
2022-09-06T05:39:19.160Z,16.92
2022-09-06T05:44:20.726Z,17.13
2022-09-06T05:49:22.323Z,17.33
2022-09-06T05:54:24.424Z,17.52
2022-09-06T05:59:26.520Z,17.69
2022-09-06T06:04:28.074Z,17.89
2022-09-06T06:09:29.650Z,18.04
2022-09-06T06:14:31.457Z,18.04
2022-09-06T06:19:33.068Z,17.97
2022-09-06T06:24:35.172Z,18.17
2022-09-06T06:29:36.806Z,18.44
2022-09-06T06:34:38.374Z,18.73
2022-09-06T06:39:40.154Z,18.93
2022-09-06T06:44:41.737Z,19.12
2022-09-06T06:49:43.319Z,19.31
2022-09-06T06:54:44.899Z,19.43
2022-09-06T06:59:46.459Z,19.46
2022-09-06T07:04:48.031Z,19.55
2022-09-06T07:15:13.938Z,19.69
2022-09-06T07:20:16.303Z,19.85
2022-09-06T07:25:21.505Z,19.94
2022-09-06T07:30:23.374Z,20.08
2022-09-06T07:35:26.531Z,20.33
2022-09-06T07:40:30.533Z,20.56
2022-09-06T07:45:32.085Z,20.65
2022-09-06T07:50:49.764Z,20.97
2022-09-06T07:55:52.147Z,21.06
2022-09-06T08:00:53.801Z,21.53
2022-09-06T08:06:11.151Z,21.61
2022-09-06T08:11:13.091Z,21.42
2022-09-06T08:16:16.898Z,21.69
2022-09-06T08:21:19.084Z,22.10
2022-09-06T08:26:22.748Z,22.13
2022-09-06T08:31:24.488Z,22.08
2022-09-06T08:36:32.614Z,21.86
2022-09-06T08:41:41.784Z,22.05
2022-09-06T08:46:57.550Z,22.63
2022-09-06T08:52:30.331Z,22.61
2022-09-06T08:58:00.851Z,23.16
2022-09-06T09:03:17.158Z,23.64
2022-09-06T09:08:27.508Z,23.66
2022-09-06T09:13:35.548Z,23.63
2022-09-06T09:18:39.808Z,24.43
2022-09-06T09:23:41.407Z,24.21
2022-09-06T09:29:27.476Z,24.68
2022-09-06T09:34:35.580Z,24.34
2022-09-06T09:39:39.432Z,24.94
2022-09-06T09:44:44.915Z,25.10
2022-09-06T09:49:46.474Z,25.89
2022-09-06T09:54:50.723Z,25.49
2022-09-06T09:59:58.264Z,25.52
2022-09-06T10:05:25.537Z,26.00
2022-09-06T10:10:30.290Z,26.61
2022-09-06T10:15:58.852Z,27.05
2022-09-06T10:21:13.393Z,27.32
2022-09-06T10:26:31.015Z,28.41
2022-09-06T10:31:35.754Z,28.34
2022-09-06T10:36:44.811Z,28.65
2022-09-06T10:42:05.891Z,27.48
2022-09-06T10:47:11.738Z,28.58
2022-09-06T10:52:29.982Z,28.48
2022-09-06T11:09:13.134Z,28.64
2022-09-06T11:14:15.618Z,29.17
2022-09-06T11:19:27.538Z,29.30
2022-09-06T11:24:47.886Z,29.78
2022-09-06T11:29:56.569Z,29.42
2022-09-06T11:35:01.188Z,28.02
2022-09-06T11:40:26.737Z,26.56
2022-09-06T11:45:49.392Z,26.07
2022-09-06T11:50:54.133Z,24.81
2022-09-06T11:56:02.050Z,23.85
2022-09-06T12:01:29.841Z,22.29
2022-09-06T12:06:40.614Z,21.59
2022-09-06T12:11:46.178Z,20.97
2022-09-06T12:17:07.177Z,19.85
2022-09-06T12:22:30.048Z,18.46
2022-09-06T12:27:39.178Z,17.40
2022-09-06T12:32:43.969Z,16.99
2022-09-06T12:37:55.917Z,16.73
2022-09-06T12:42:58.429Z,16.52
2022-09-06T12:48:08.977Z,16.40
2022-09-06T12:53:24.491Z,16.30
2022-09-06T12:58:29.637Z,16.16
2022-09-06T13:03:34.246Z,16.16
2022-09-06T13:08:47.268Z,16.04
2022-09-06T13:13:54.061Z,16.30
2022-09-06T13:19:11.708Z,16.51
2022-09-06T13:24:28.356Z,16.60
2022-09-06T13:29:32.100Z,16.75
2022-09-06T13:34:34.295Z,16.94
2022-09-06T13:39:41.214Z,16.98
2022-09-06T13:44:42.876Z,16.85
2022-09-06T13:49:44.507Z,16.68
2022-09-06T13:54:47.890Z,16.77
2022-09-06T13:59:49.464Z,17.09
2022-09-06T14:04:51.201Z,17.35
2022-09-06T14:09:52.867Z,17.79
2022-09-06T14:14:54.494Z,18.27
2022-09-06T14:19:56.141Z,20.52
2022-09-06T14:24:57.842Z,23.69
2022-09-06T14:29:59.520Z,23.15
2022-09-06T14:35:02.074Z,23.06
2022-09-06T14:40:04.864Z,22.01
2022-09-06T14:45:07.115Z,21.00
2022-09-06T14:50:09.240Z,21.06
2022-09-06T14:55:11.032Z,21.18
2022-09-06T15:00:13.359Z,21.33
2022-09-06T15:05:15.067Z,21.35
2022-09-06T15:10:16.707Z,21.26
2022-09-06T15:15:18.478Z,20.42
2022-09-06T15:20:20.772Z,20.31
2022-09-06T15:25:22.425Z,19.90
2022-09-06T15:35:43.953Z,19.89
2022-09-06T15:40:45.775Z,19.68
2022-09-06T15:45:50.203Z,19.72
2022-09-06T15:50:52.070Z,19.93
2022-09-06T15:55:59.181Z,20.03
2022-09-06T16:01:05.634Z,19.70
2022-09-06T16:11:36.775Z,19.26
2022-09-06T16:16:40.547Z,19.11
2022-09-06T16:21:43.112Z,18.95
2022-09-06T16:26:46.648Z,18.73
2022-09-06T16:31:48.390Z,18.57
2022-09-06T16:36:50.185Z,18.48
2022-09-06T16:41:51.806Z,18.28
2022-09-06T16:46:56.041Z,18.16
2022-09-06T16:51:57.609Z,18.08
2022-09-06T16:57:01.161Z,17.95
2022-09-06T17:02:03.186Z,17.85
2022-09-06T17:07:04.960Z,17.71
2022-09-06T17:12:06.687Z,17.59
2022-09-06T17:17:09.921Z,17.40
2022-09-06T17:22:12.778Z,17.26
2022-09-06T17:27:14.695Z,17.14
2022-09-06T17:32:16.394Z,17.01
2022-09-06T17:37:18.087Z,16.85
2022-09-06T17:42:19.711Z,16.66
2022-09-06T17:47:21.368Z,16.68
2022-09-06T17:52:22.963Z,16.62
2022-09-06T17:57:25.048Z,16.44
2022-09-06T18:02:26.729Z,16.32
2022-09-06T18:07:28.321Z,16.15
2022-09-06T18:12:30.918Z,15.98
2022-09-06T18:17:32.615Z,15.85
2022-09-06T18:22:34.327Z,15.64
2022-09-06T18:27:35.954Z,15.47
2022-09-06T18:32:37.770Z,15.29
2022-09-06T18:37:39.398Z,15.25
2022-09-06T18:42:44.618Z,15.20
2022-09-06T18:47:46.230Z,15.10
2022-09-06T18:52:47.830Z,15.06
2022-09-06T18:57:49.439Z,15.10
2022-09-06T19:02:51.138Z,14.96
2022-09-06T19:07:52.806Z,14.79
2022-09-06T19:12:54.519Z,14.75
2022-09-06T19:17:57.020Z,14.65
2022-09-06T19:22:58.620Z,14.60
2022-09-06T19:28:00.394Z,14.52
2022-09-06T19:33:02.010Z,14.42
2022-09-06T19:38:03.923Z,14.28
2022-09-06T19:43:05.532Z,14.17
2022-09-06T19:48:08.163Z,14.15
2022-09-06T19:53:09.764Z,14.06
2022-09-06T19:58:11.476Z,14.15
2022-09-06T20:03:13.142Z,14.15
2022-09-06T20:08:14.993Z,14.11
2022-09-06T20:13:16.581Z,14.21
2022-09-06T20:18:18.510Z,14.00
2022-09-06T20:23:20.411Z,13.86
2022-09-06T20:28:21.987Z,13.77
2022-09-06T20:33:23.686Z,13.78
2022-09-06T20:38:25.731Z,13.66
2022-09-06T20:43:27.866Z,13.51
2022-09-06T20:48:32.244Z,13.47
2022-09-06T20:53:37.703Z,13.48
2022-09-06T20:58:40.815Z,13.42
2022-09-06T21:03:42.992Z,13.28
2022-09-06T21:08:44.942Z,13.32
2022-09-06T21:13:52.262Z,13.27
2022-09-06T21:18:56.654Z,13.26
2022-09-06T21:24:00.640Z,13.19
2022-09-06T21:29:03.524Z,13.07
2022-09-06T21:34:08.532Z,13.05
2022-09-06T21:39:13.017Z,12.92
2022-09-06T21:44:14.716Z,12.88
2022-09-06T21:49:16.469Z,12.87
2022-09-06T21:54:18.116Z,12.85
2022-09-06T21:59:19.838Z,12.80
2022-09-06T22:04:21.430Z,12.88
2022-09-06T22:09:23.083Z,12.83
2022-09-06T22:14:24.700Z,12.73
2022-09-06T22:19:26.542Z,12.68
2022-09-06T22:24:28.408Z,12.68
2022-09-06T22:29:30.424Z,12.62
2022-09-06T22:34:32.253Z,12.63
2022-09-06T22:39:34.134Z,12.56
2022-09-06T22:44:36.002Z,12.48
2022-09-06T22:49:37.817Z,12.43
2022-09-06T22:54:40.331Z,12.43
2022-09-06T22:59:42.148Z,12.33
2022-09-06T23:04:44.006Z,12.43
2022-09-06T23:09:45.840Z,12.37
2022-09-06T23:14:47.695Z,12.29
2022-09-06T23:19:49.467Z,12.24
2022-09-06T23:24:51.242Z,12.17
2022-09-06T23:29:53.042Z,12.19
2022-09-06T23:34:55.864Z,12.22
2022-09-06T23:39:57.776Z,12.12
2022-09-06T23:44:59.695Z,12.01
2022-09-06T23:50:01.588Z,11.95
2022-09-06T23:55:04.042Z,11.95
